createdAt,value
2022-08-09T00:00:13.796Z,18.60
2022-08-09T00:02:49.605Z,18.60
2022-08-09T00:06:17.860Z,18.60
2022-08-09T00:08:32.151Z,18.50
2022-08-09T00:11:05.813Z,18.50
2022-08-09T00:13:52.895Z,18.50
2022-08-09T00:16:26.389Z,18.40
2022-08-09T00:19:09.515Z,18.40
2022-08-09T00:21:38.752Z,18.40
2022-08-09T00:24:22.420Z,18.40
2022-08-09T00:26:51.328Z,18.30
2022-08-09T00:29:39.665Z,18.30
2022-08-09T00:32:06.510Z,18.30
2022-08-09T00:34:33.705Z,18.20
2022-08-09T00:37:01.223Z,18.20
2022-08-09T00:40:12.362Z,18.20
2022-08-09T00:44:17.149Z,18.10
2022-08-09T00:45:15.671Z,18.10
2022-08-09T00:47:43.417Z,18.10
2022-08-09T00:50:14.623Z,18.10
2022-08-09T00:52:42.642Z,18.10
2022-08-09T00:55:16.641Z,18.10
2022-08-09T00:57:44.159Z,18.00
2022-08-09T01:00:21.424Z,18.00
2022-08-09T01:03:15.069Z,18.00
2022-08-09T01:06:20.432Z,18.00
2022-08-09T01:09:09.511Z,18.00
2022-08-09T01:12:03.057Z,17.90
2022-08-09T01:14:35.191Z,17.90
2022-08-09T01:17:10.885Z,17.90
2022-08-09T01:19:51.714Z,17.90
2022-08-09T01:22:45.139Z,17.80
2022-08-09T01:25:41.610Z,17.80
2022-08-09T01:28:11.376Z,17.80
2022-08-09T01:30:52.640Z,17.70
2022-08-09T01:33:25.296Z,17.70
2022-08-09T01:35:59.665Z,17.70
2022-08-09T01:38:29.966Z,17.70
2022-08-09T01:41:05.396Z,17.70
2022-08-09T01:43:50.354Z,17.60
2022-08-09T01:46:29.140Z,17.60
2022-08-09T01:49:10.631Z,17.60
2022-08-09T01:51:44.590Z,17.60
2022-08-09T01:54:23.693Z,17.50
2022-08-09T01:56:52.593Z,17.50
2022-08-09T01:59:23.016Z,17.50
2022-08-09T02:02:00.340Z,17.50
2022-08-09T02:04:30.514Z,17.50
2022-08-09T02:08:35.527Z,17.40
2022-08-09T02:10:15.399Z,17.40
2022-08-09T02:12:46.204Z,17.40
2022-08-09T02:15:19.405Z,17.40
2022-08-09T02:18:09.901Z,17.40
2022-08-09T02:20:45.247Z,17.40
2022-08-09T02:23:40.049Z,17.40
2022-08-09T02:26:25.361Z,17.40
2022-08-09T02:29:11.199Z,17.40
2022-08-09T02:31:43.492Z,17.40
2022-08-09T02:34:25.978Z,17.40
2022-08-09T02:37:14.216Z,17.30
2022-08-09T02:39:55.190Z,17.30
2022-08-09T02:42:35.106Z,17.30
2022-08-09T02:45:13.224Z,17.30
2022-08-09T02:47:46.319Z,17.30
2022-08-09T02:50:37.572Z,17.30
2022-08-09T02:53:17.207Z,17.20
2022-08-09T02:55:58.393Z,17.20
2022-08-09T02:58:32.911Z,17.20
2022-08-09T03:01:08.043Z,17.20
2022-08-09T03:04:13.858Z,17.20
2022-08-09T03:06:27.260Z,17.10
2022-08-09T03:08:56.317Z,17.10
2022-08-09T03:11:29.770Z,17.10
2022-08-09T03:14:13.647Z,17.10
2022-08-09T03:16:47.447Z,17.00
2022-08-09T03:19:59.116Z,17.00
2022-08-09T03:22:12.188Z,17.00
2022-08-09T03:24:52.665Z,17.00
2022-08-09T03:27:45.397Z,16.90
2022-08-09T03:30:29.543Z,16.90
2022-08-09T03:33:16.918Z,16.90
2022-08-09T03:36:13.805Z,16.90
2022-08-09T03:38:42.728Z,16.90
2022-08-09T03:41:18.587Z,16.90
2022-08-09T03:44:03.005Z,16.80
2022-08-09T03:46:34.967Z,16.80
2022-08-09T03:49:07.893Z,16.80
2022-08-09T03:51:43.887Z,16.80
2022-08-09T03:54:30.929Z,16.80
2022-08-09T03:57:02.243Z,16.70
2022-08-09T03:59:53.195Z,16.70
2022-08-09T04:02:19.842Z,16.70
2022-08-09T04:04:56.454Z,16.70
2022-08-09T04:07:47.560Z,16.60
2022-08-09T04:10:13.219Z,16.60
2022-08-09T04:12:54.226Z,16.60
2022-08-09T04:15:42.597Z,16.60
2022-08-09T04:18:16.600Z,16.60
2022-08-09T04:20:46.108Z,16.50
2022-08-09T04:23:17.376Z,16.50
2022-08-09T04:25:51.853Z,16.50
2022-08-09T04:28:34.240Z,16.50
2022-08-09T04:31:05.867Z,16.50
2022-08-09T04:33:52.056Z,16.50
2022-08-09T04:36:28.899Z,16.50
2022-08-09T04:38:59.323Z,16.50
2022-08-09T04:41:32.307Z,16.50
2022-08-09T04:44:06.788Z,16.50
2022-08-09T04:46:58.811Z,16.50
2022-08-09T04:49:30.466Z,16.50
2022-08-09T04:52:18.466Z,16.50
2022-08-09T04:55:01.053Z,16.50
2022-08-09T04:57:58.764Z,16.50
2022-08-09T05:00:16.699Z,16.50
2022-08-09T05:02:51.719Z,16.40
2022-08-09T05:05:32.460Z,16.40
2022-08-09T05:08:07.814Z,16.50
2022-08-09T05:10:36.735Z,16.50
2022-08-09T05:13:05.015Z,16.50
2022-08-09T05:15:39.443Z,16.50
2022-08-09T05:18:38.257Z,16.50
2022-08-09T05:20:59.993Z,16.50
2022-08-09T05:23:56.742Z,16.60
2022-08-09T05:26:22.315Z,16.60
2022-08-09T05:29:00.975Z,16.60
2022-08-09T05:31:44.306Z,16.60
2022-08-09T05:34:17.440Z,16.60
2022-08-09T05:36:48.611Z,16.70
2022-08-09T05:39:28.572Z,16.70
2022-08-09T05:42:01.740Z,16.80
2022-08-09T05:44:32.688Z,16.90
2022-08-09T05:47:00.745Z,16.90
2022-08-09T05:50:24.042Z,17.00
2022-08-09T05:52:15.571Z,17.10
2022-08-09T05:54:42.684Z,17.10
2022-08-09T05:57:14.268Z,17.20
2022-08-09T05:59:45.187Z,17.30
2022-08-09T06:02:17.031Z,17.40
2022-08-09T06:04:46.269Z,17.40
2022-08-09T06:07:21.367Z,17.50
2022-08-09T06:10:02.284Z,17.60
2022-08-09T06:12:30.678Z,17.60
2022-08-09T06:15:01.369Z,17.70
2022-08-09T06:17:39.026Z,17.80
2022-08-09T06:20:08.463Z,17.90
2022-08-09T06:22:36.005Z,18.00
2022-08-09T06:25:03.855Z,18.00
2022-08-09T06:27:43.130Z,18.10
2022-08-09T06:30:17.844Z,18.10
2022-08-09T06:33:13.340Z,18.20
2022-08-09T06:35:56.225Z,18.30
2022-08-09T06:38:19.850Z,18.50
2022-08-09T06:40:59.145Z,18.60
2022-08-09T06:43:27.637Z,18.60
2022-08-09T06:46:10.575Z,18.70
2022-08-09T06:48:42.759Z,18.80
2022-08-09T06:51:15.949Z,18.90
2022-08-09T06:53:43.820Z,19.00
2022-08-09T06:56:10.874Z,19.10
2022-08-09T07:00:55.236Z,19.20
2022-08-09T07:01:54.745Z,19.30
2022-08-09T07:04:19.739Z,19.40
2022-08-09T07:06:47.602Z,19.50
2022-08-09T07:09:54.901Z,19.60
2022-08-09T07:12:07.492Z,19.70
2022-08-09T07:14:44.364Z,19.70
2022-08-09T07:17:11.938Z,19.80
2022-08-09T07:19:42.054Z,19.90
2022-08-09T07:22:10.894Z,20.00
2022-08-09T07:24:40.148Z,20.10
2022-08-09T07:27:27.344Z,20.20
2022-08-09T07:29:59.509Z,20.30
2022-08-09T07:32:32.133Z,20.40
2022-08-09T07:35:10.163Z,20.50
2022-08-09T07:37:45.249Z,20.60
2022-08-09T07:40:20.066Z,20.70
2022-08-09T07:42:57.113Z,20.70
2022-08-09T07:45:39.208Z,20.80
2022-08-09T07:48:25.934Z,20.90
2022-08-09T07:51:09.801Z,21.00
2022-08-09T07:54:06.701Z,21.10
2022-08-09T07:56:49.219Z,21.20
2022-08-09T07:59:33.676Z,21.30
2022-08-09T08:02:05.880Z,21.40
2022-08-09T08:04:33.113Z,21.50
2022-08-09T08:07:27.031Z,21.60
2022-08-09T08:09:55.131Z,21.60
2022-08-09T08:12:33.606Z,21.70
2022-08-09T08:15:00.649Z,21.80
2022-08-09T08:17:53.009Z,21.90
2022-08-09T08:20:15.799Z,21.90
2022-08-09T08:22:43.300Z,22.00
2022-08-09T08:25:13.587Z,22.10
2022-08-09T08:27:43.092Z,22.20
2022-08-09T08:30:11.771Z,22.20
2022-08-09T08:32:41.586Z,22.20
2022-08-09T08:35:22.464Z,22.30
2022-08-09T08:38:02.249Z,22.40
2022-08-09T08:40:37.038Z,22.60
2022-08-09T08:43:13.392Z,22.70
2022-08-09T08:46:04.111Z,22.70
2022-08-09T08:48:51.392Z,22.80
2022-08-09T08:51:22.908Z,22.90
2022-08-09T08:54:03.839Z,22.90
2022-08-09T08:56:39.720Z,23.00
2022-08-09T08:59:19.917Z,23.00
2022-08-09T09:01:52.701Z,23.00
2022-08-09T09:04:26.899Z,23.00
2022-08-09T09:06:58.579Z,23.10
2022-08-09T09:09:58.148Z,23.20
2022-08-09T09:12:23.071Z,23.30
2022-08-09T09:14:59.003Z,23.40
2022-08-09T09:17:25.932Z,23.40
2022-08-09T09:20:15.362Z,23.50
2022-08-09T09:23:02.065Z,23.70
2022-08-09T09:26:03.881Z,23.70
2022-08-09T09:29:03.073Z,23.70
2022-08-09T09:32:04.031Z,23.70
2022-08-09T09:34:17.975Z,23.80
2022-08-09T09:36:53.183Z,24.00
2022-08-09T09:39:55.356Z,24.10
2022-08-09T09:42:25.515Z,24.10
2022-08-09T09:44:59.063Z,24.30
2022-08-09T09:47:28.373Z,24.20
2022-08-09T09:50:14.520Z,24.30
2022-08-09T09:52:54.482Z,24.40
2022-08-09T09:55:29.156Z,24.40
2022-08-09T09:58:17.948Z,24.40
2022-08-09T10:01:31.490Z,24.40
2022-08-09T10:03:59.259Z,24.50
2022-08-09T10:06:42.798Z,24.50
2022-08-09T10:09:23.314Z,24.60
2022-08-09T10:12:11.892Z,24.60
2022-08-09T10:14:48.213Z,24.70
2022-08-09T10:17:50.609Z,24.70
2022-08-09T10:20:27.386Z,24.80
2022-08-09T10:23:17.027Z,24.90
2022-08-09T10:26:07.186Z,25.00
2022-08-09T10:28:36.696Z,25.10
2022-08-09T10:34:08.038Z,25.20
2022-08-09T10:36:39.908Z,25.40
2022-08-09T10:39:15.844Z,25.50
2022-08-09T10:41:47.621Z,25.60
2022-08-09T10:44:21.811Z,25.80
2022-08-09T10:47:00.543Z,26.00
2022-08-09T10:49:51.688Z,26.20
2022-08-09T10:52:46.296Z,26.40
2022-08-09T10:55:24.753Z,26.50
2022-08-09T10:57:55.953Z,26.60
2022-08-09T11:00:33.851Z,26.70
2022-08-09T11:03:27.781Z,26.90
2022-08-09T11:06:24.631Z,27.20
2022-08-09T11:08:53.401Z,27.50
2022-08-09T11:11:23.011Z,27.70
2022-08-09T11:14:28.454Z,27.80
2022-08-09T11:16:57.272Z,27.70
2022-08-09T11:20:20.522Z,27.80
2022-08-09T11:22:57.368Z,27.90
2022-08-09T11:25:45.312Z,28.00
2022-08-09T11:28:54.302Z,28.10
2022-08-09T11:31:52.640Z,28.10
2022-08-09T11:34:42.201Z,28.40
2022-08-09T11:37:17.892Z,28.70
2022-08-09T11:40:05.302Z,28.90
2022-08-09T11:42:50.700Z,29.20
2022-08-09T11:45:42.000Z,29.20
2022-08-09T11:48:19.443Z,29.10
2022-08-09T11:51:19.325Z,29.00
2022-08-09T11:54:12.673Z,29.30
2022-08-09T11:56:47.700Z,29.60
2022-08-09T11:59:30.213Z,29.80
2022-08-09T12:02:34.869Z,30.10
2022-08-09T12:04:57.933Z,30.10
2022-08-09T12:07:41.726Z,30.30
2022-08-09T12:10:31.783Z,30.40
2022-08-09T12:13:03.652Z,30.60
2022-08-09T12:15:52.393Z,30.70
2022-08-09T12:18:29.590Z,30.80
2022-08-09T12:21:00.395Z,30.80
2022-08-09T12:23:57.939Z,31.10
2022-08-09T12:26:19.656Z,31.30
2022-08-09T12:28:59.335Z,31.40
2022-08-09T12:32:01.907Z,31.50
2022-08-09T12:34:33.994Z,31.80
2022-08-09T12:37:21.898Z,32.20
2022-08-09T12:40:10.699Z,32.40
2022-08-09T12:42:44.333Z,32.60
2022-08-09T12:45:34.983Z,32.80
2022-08-09T12:48:03.602Z,32.90
2022-08-09T12:50:31.378Z,32.90
2022-08-09T12:53:09.526Z,33.00
2022-08-09T12:56:46.518Z,33.10
2022-08-09T12:59:16.869Z,33.10
2022-08-09T13:02:09.608Z,33.20
2022-08-09T13:04:39.449Z,33.50
2022-08-09T13:07:28.459Z,33.80
2022-08-09T13:10:13.400Z,34.10
2022-08-09T13:13:09.411Z,34.40
2022-08-09T13:16:03.311Z,34.70
2022-08-09T13:18:53.484Z,34.60
2022-08-09T13:22:35.376Z,34.60
2022-08-09T13:24:53.217Z,34.60
2022-08-09T13:27:30.373Z,34.60
2022-08-09T13:30:49.149Z,34.90
2022-08-09T13:33:04.884Z,35.50
2022-08-09T13:35:34.313Z,35.80
2022-08-09T13:38:17.629Z,36.00
2022-08-09T13:41:50.377Z,36.20
2022-08-09T13:43:51.008Z,36.20
2022-08-09T13:47:16.929Z,36.30
2022-08-09T13:49:18.427Z,36.40
2022-08-09T13:51:58.726Z,36.50
2022-08-09T13:54:30.249Z,36.70
2022-08-09T13:56:59.961Z,36.70
2022-08-09T13:59:27.050Z,36.70
2022-08-09T14:02:10.001Z,37.00
2022-08-09T14:04:37.311Z,37.20
2022-08-09T14:07:06.904Z,37.40
2022-08-09T14:09:35.805Z,37.10
2022-08-09T14:12:15.368Z,37.10
2022-08-09T14:14:43.922Z,37.40
2022-08-09T14:17:13.031Z,37.70
2022-08-09T14:19:44.141Z,38.00
2022-08-09T14:22:11.978Z,38.10
2022-08-09T14:24:47.071Z,38.40
2022-08-09T14:27:20.973Z,38.50
2022-08-09T14:30:35.930Z,38.60
2022-08-09T14:32:40.487Z,38.60
2022-08-09T14:35:09.241Z,38.40
2022-08-09T14:37:40.917Z,38.40
2022-08-09T14:41:01.564Z,38.20
2022-08-09T14:43:19.162Z,38.40
2022-08-09T14:46:57.492Z,38.70
2022-08-09T14:48:38.417Z,39.00
2022-08-09T14:51:05.665Z,38.80
2022-08-09T14:53:38.899Z,38.70
2022-08-09T14:56:13.290Z,38.80
2022-08-09T14:58:43.800Z,38.80
2022-08-09T15:01:12.608Z,38.90
2022-08-09T15:03:41.358Z,39.00
2022-08-09T15:06:12.018Z,38.90
2022-08-09T15:08:45.106Z,39.00
2022-08-09T15:11:25.779Z,38.70
2022-08-09T15:13:57.384Z,38.40
2022-08-09T15:17:09.983Z,38.60
2022-08-09T15:19:59.267Z,38.80
2022-08-09T15:22:26.060Z,38.80
2022-08-09T15:24:54.322Z,39.00
2022-08-09T15:27:22.065Z,39.20
2022-08-09T15:30:55.873Z,39.20
2022-08-09T15:32:39.430Z,38.80
2022-08-09T15:35:18.651Z,38.80
2022-08-09T15:37:57.340Z,38.90
2022-08-09T15:40:37.930Z,39.00
2022-08-09T15:43:13.283Z,39.10
2022-08-09T15:45:51.834Z,39.30
2022-08-09T15:48:31.813Z,39.50
2022-08-09T15:51:02.344Z,39.40
2022-08-09T15:54:04.527Z,39.20
2022-08-09T15:56:35.069Z,39.00
2022-08-09T15:59:02.805Z,39.00
2022-08-09T16:01:31.349Z,39.20
2022-08-09T16:04:02.708Z,39.50
2022-08-09T16:06:35.727Z,39.50
2022-08-09T16:09:07.898Z,39.40
2022-08-09T16:11:34.998Z,39.30
2022-08-09T16:14:08.772Z,39.10
2022-08-09T16:16:41.812Z,38.90
2022-08-09T16:19:16.060Z,38.60
2022-08-09T16:21:53.821Z,38.30
2022-08-09T16:24:33.310Z,38.30
2022-08-09T16:27:02.780Z,38.00
2022-08-09T16:29:49.860Z,38.10
2022-08-09T16:32:34.262Z,37.90
2022-08-09T16:35:02.660Z,38.10
2022-08-09T16:37:55.541Z,38.40
2022-08-09T16:40:40.097Z,38.50
2022-08-09T16:43:10.676Z,38.40
2022-08-09T16:45:44.267Z,38.60
2022-08-09T16:48:41.362Z,38.50
2022-08-09T16:51:38.657Z,38.20
2022-08-09T16:54:25.966Z,38.30
2022-08-09T16:57:00.969Z,38.30
2022-08-09T16:59:34.604Z,38.30
2022-08-09T17:02:02.371Z,38.20
2022-08-09T17:04:29.273Z,38.00
2022-08-09T17:08:41.233Z,37.90
2022-08-09T17:09:47.423Z,37.80
2022-08-09T17:12:15.399Z,37.50
2022-08-09T17:14:47.930Z,37.10
2022-08-09T17:17:17.406Z,36.90
2022-08-09T17:20:32.809Z,36.90
2022-08-09T17:22:50.143Z,37.00
2022-08-09T17:25:22.231Z,37.20
2022-08-09T17:27:54.618Z,37.30
2022-08-09T17:30:28.860Z,37.20
2022-08-09T17:33:01.493Z,37.20
2022-08-09T17:35:34.816Z,37.30
2022-08-09T17:38:24.369Z,37.50
2022-08-09T17:40:49.750Z,37.30
2022-08-09T17:43:34.076Z,37.10
2022-08-09T17:46:10.020Z,36.90
2022-08-09T17:48:52.036Z,36.60
2022-08-09T17:51:20.957Z,36.30
2022-08-09T17:53:53.409Z,36.10
2022-08-09T17:56:35.188Z,35.90
2022-08-09T17:59:11.317Z,35.60
2022-08-09T18:02:07.606Z,34.50
2022-08-09T18:04:31.253Z,33.20
2022-08-09T18:07:04.777Z,32.00
2022-08-09T18:09:40.261Z,31.10
2022-08-09T18:12:17.507Z,30.40
2022-08-09T18:14:53.574Z,29.80
2022-08-09T18:17:27.455Z,29.30
2022-08-09T18:20:57.099Z,28.90
2022-08-09T18:22:57.914Z,28.50
2022-08-09T18:25:50.563Z,28.20
2022-08-09T18:30:39.644Z,27.90
2022-08-09T18:31:14.022Z,27.70
2022-08-09T18:33:41.902Z,27.50
2022-08-09T18:36:25.873Z,27.40
2022-08-09T18:39:03.331Z,27.20
2022-08-09T18:41:34.999Z,27.10
2022-08-09T18:44:03.884Z,26.90
2022-08-09T18:46:50.910Z,26.80
2022-08-09T18:49:27.878Z,26.70
2022-08-09T18:51:59.410Z,26.60
2022-08-09T18:54:30.317Z,26.50
2022-08-09T18:57:05.415Z,26.40
2022-08-09T18:59:37.350Z,26.30
2022-08-09T19:02:16.844Z,26.20
2022-08-09T19:05:04.053Z,26.00
2022-08-09T19:07:36.896Z,25.90
2022-08-09T19:10:14.781Z,25.80
2022-08-09T19:12:54.986Z,25.70
2022-08-09T19:15:28.027Z,25.70
2022-08-09T19:17:58.242Z,25.60
2022-08-09T19:20:34.458Z,25.50
2022-08-09T19:23:16.763Z,25.40
2022-08-09T19:26:02.077Z,25.40
2022-08-09T19:28:32.216Z,25.30
2022-08-09T19:30:59.458Z,25.20
2022-08-09T19:33:26.952Z,25.10
2022-08-09T19:36:01.919Z,25.00
2022-08-09T19:38:31.758Z,25.00
2022-08-09T19:41:01.128Z,24.90
2022-08-09T19:44:01.785Z,24.80
2022-08-09T19:46:34.132Z,24.80
2022-08-09T19:50:07.564Z,24.70
2022-08-09T19:52:03.258Z,24.60
2022-08-09T19:54:30.452Z,24.50
2022-08-09T19:57:00.111Z,24.50
2022-08-09T19:59:58.999Z,24.40
2022-08-09T20:04:10.149Z,24.40
2022-08-09T20:05:10.085Z,24.30
2022-08-09T20:07:58.625Z,24.20
2022-08-09T20:10:36.792Z,24.20
2022-08-09T20:13:06.521Z,24.10
2022-08-09T20:16:38.240Z,24.00
2022-08-09T20:18:27.975Z,23.90
2022-08-09T20:20:58.032Z,23.90
2022-08-09T20:23:38.879Z,23.80
2022-08-09T20:26:13.214Z,23.70
2022-08-09T20:28:47.918Z,23.70
2022-08-09T20:31:17.736Z,23.60
2022-08-09T20:33:45.405Z,23.60
2022-08-09T20:36:13.359Z,23.50
2022-08-09T20:41:32.232Z,23.40
2022-08-09T20:44:02.968Z,23.30
2022-08-09T20:46:41.996Z,23.30
2022-08-09T20:49:11.446Z,23.20
2022-08-09T20:51:42.132Z,23.10
2022-08-09T20:54:16.826Z,23.10
2022-08-09T20:56:49.470Z,23.10
2022-08-09T20:59:50.365Z,23.00
2022-08-09T21:02:18.982Z,23.00
2022-08-09T21:05:57.571Z,22.90
2022-08-09T21:07:40.151Z,22.90
2022-08-09T21:10:08.935Z,22.80
2022-08-09T21:12:38.175Z,22.70
2022-08-09T21:15:06.295Z,22.70
2022-08-09T21:18:23.475Z,22.60
2022-08-09T21:20:30.349Z,22.60
2022-08-09T21:22:58.390Z,22.50
2022-08-09T21:25:55.538Z,22.50
2022-08-09T21:28:34.435Z,22.40
2022-08-09T21:31:16.973Z,22.40
2022-08-09T21:33:53.042Z,22.30
2022-08-09T21:36:27.796Z,22.20
2022-08-09T21:38:57.214Z,22.20
2022-08-09T21:42:04.476Z,22.10
2022-08-09T21:44:34.323Z,22.00
2022-08-09T21:47:09.195Z,21.90
2022-08-09T21:49:40.099Z,21.90
2022-08-09T21:52:14.998Z,21.90
2022-08-09T21:54:59.639Z,21.80
2022-08-09T21:57:39.190Z,21.80
2022-08-09T22:00:31.945Z,21.70
2022-08-09T22:03:02.378Z,21.60
2022-08-09T22:05:35.800Z,21.60
2022-08-09T22:08:06.034Z,21.60
2022-08-09T22:10:33.148Z,21.50
2022-08-09T22:13:07.303Z,21.50
2022-08-09T22:15:35.426Z,21.40
2022-08-09T22:18:04.247Z,21.40
2022-08-09T22:20:35.266Z,21.40
2022-08-09T22:23:02.384Z,21.30
2022-08-09T22:26:08.563Z,21.30
2022-08-09T22:28:29.686Z,21.20
2022-08-09T22:31:00.806Z,21.20
2022-08-09T22:33:42.738Z,21.10
2022-08-09T22:36:19.409Z,21.10
2022-08-09T22:38:48.062Z,21.00
2022-08-09T22:41:15.082Z,20.90
2022-08-09T22:44:03.167Z,20.90
2022-08-09T22:48:15.099Z,20.80
2022-08-09T22:49:18.895Z,20.80
2022-08-09T22:51:49.368Z,20.70
2022-08-09T22:54:21.442Z,20.70
2022-08-09T22:56:54.615Z,20.60
2022-08-09T22:59:56.741Z,20.60
2022-08-09T23:02:15.977Z,20.60
2022-08-09T23:04:53.434Z,20.50
2022-08-09T23:08:22.096Z,20.50
2022-08-09T23:10:28.280Z,20.40
2022-08-09T23:12:55.134Z,20.40
2022-08-09T23:15:22.193Z,20.40
2022-08-09T23:17:49.073Z,20.40
2022-08-09T23:20:16.016Z,20.30
2022-08-09T23:22:43.018Z,20.30
2022-08-09T23:25:11.075Z,20.20
2022-08-09T23:28:14.461Z,20.30
2022-08-09T23:30:25.008Z,20.20
2022-08-09T23:32:51.917Z,20.20
2022-08-09T23:35:21.877Z,20.10
2022-08-09T23:37:51.312Z,20.10
2022-08-09T23:40:18.653Z,20.10
2022-08-09T23:42:45.757Z,20.00
2022-08-09T23:45:37.349Z,20.00
2022-08-09T23:47:59.763Z,19.90
2022-08-09T23:50:27.015Z,19.90
2022-08-09T23:52:54.318Z,19.80
2022-08-09T23:55:22.020Z,19.80
2022-08-09T23:58:10.705Z,19.80
